sensor_id;sensor_type;location;lat;lon;timestamp;P1;durP1;ratioP1;P2;durP2;ratioP2
51848;SDS011;38952;51.090;-1.832;2022-08-11T00:01:25;0.50;;;0.50;;
51848;SDS011;38952;51.090;-1.832;2022-08-11T00:03:59;0.35;;;0.35;;
51848;SDS011;38952;51.090;-1.832;2022-08-11T00:06:28;0.40;;;0.40;;
51848;SDS011;38952;51.090;-1.832;2022-08-11T00:08:57;1.88;;;0.55;;
51848;SDS011;38952;51.090;-1.832;2022-08-11T00:11:37;1.02;;;0.40;;
51848;SDS011;38952;51.090;-1.832;2022-08-11T00:14:11;0.82;;;0.60;;
51848;SDS011;38952;51.090;-1.832;2022-08-11T00:16:39;0.98;;;0.52;;
51848;SDS011;38952;51.090;-1.832;2022-08-11T00:19:06;1.08;;;0.65;;
51848;SDS011;38952;51.090;-1.832;2022-08-11T00:21:32;0.63;;;0.50;;
51848;SDS011;38952;51.090;-1.832;2022-08-11T00:24:05;1.70;;;0.70;;
51848;SDS011;38952;51.090;-1.832;2022-08-11T00:26:32;2.42;;;0.70;;
51848;SDS011;38952;51.090;-1.832;2022-08-11T00:29:07;4.20;;;0.90;;
51848;SDS011;38952;51.090;-1.832;2022-08-11T00:31:33;0.68;;;0.68;;
51848;SDS011;38952;51.090;-1.832;2022-08-11T00:34:00;0.88;;;0.70;;
51848;SDS011;38952;51.090;-1.832;2022-08-11T00:36:29;0.60;;;0.60;;
51848;SDS011;38952;51.090;-1.832;2022-08-11T00:39:04;0.63;;;0.40;;
51848;SDS011;38952;51.090;-1.832;2022-08-11T00:44:35;3.88;;;1.05;;
51848;SDS011;38952;51.090;-1.832;2022-08-11T01:43:21;0.47;;;0.47;;
51848;SDS011;38952;51.090;-1.832;2022-08-11T01:46:34;0.55;;;0.50;;
51848;SDS011;38952;51.090;-1.832;2022-08-11T01:57:43;1.00;;;0.70;;
51848;SDS011;38952;51.090;-1.832;2022-08-11T02:00:18;0.73;;;0.60;;
51848;SDS011;38952;51.090;-1.832;2022-08-11T02:11:14;3.25;;;1.25;;
51848;SDS011;38952;51.090;-1.832;2022-08-11T02:22:08;2.15;;;1.00;;
51848;SDS011;38952;51.090;-1.832;2022-08-11T02:25:30;4.07;;;1.13;;
51848;SDS011;38952;51.090;-1.832;2022-08-11T02:30:38;1.75;;;1.00;;
51848;SDS011;38952;51.090;-1.832;2022-08-11T02:33:31;4.97;;;1.73;;
51848;SDS011;38952;51.090;-1.832;2022-08-11T02:41:40;1.55;;;0.80;;
51848;SDS011;38952;51.090;-1.832;2022-08-11T02:47:38;2.58;;;1.23;;
51848;SDS011;38952;51.090;-1.832;2022-08-11T02:50:32;2.20;;;1.05;;
51848;SDS011;38952;51.090;-1.832;2022-08-11T03:03:52;4.50;;;1.50;;
51848;SDS011;38952;51.090;-1.832;2022-08-11T03:06:31;3.42;;;1.35;;
51848;SDS011;38952;51.090;-1.832;2022-08-11T03:09:08;3.25;;;1.60;;
51848;SDS011;38952;51.090;-1.832;2022-08-11T03:15:24;2.75;;;1.80;;
51848;SDS011;38952;51.090;-1.832;2022-08-11T03:18:36;1.48;;;1.00;;
51848;SDS011;38952;51.090;-1.832;2022-08-11T03:21:17;1.30;;;1.20;;
51848;SDS011;38952;51.090;-1.832;2022-08-11T03:24:10;1.77;;;1.10;;
51848;SDS011;38952;51.090;-1.832;2022-08-11T03:26:46;3.05;;;1.27;;
51848;SDS011;38952;51.090;-1.832;2022-08-11T03:29:30;3.00;;;1.42;;
51848;SDS011;38952;51.090;-1.832;2022-08-11T03:32:04;2.83;;;1.52;;
51848;SDS011;38952;51.090;-1.832;2022-08-11T03:34:35;2.20;;;1.60;;
51848;SDS011;38952;51.090;-1.832;2022-08-11T03:43:04;1.67;;;1.40;;
51848;SDS011;38952;51.090;-1.832;2022-08-11T03:46:07;6.55;;;2.20;;
51848;SDS011;38952;51.090;-1.832;2022-08-11T03:48:48;6.28;;;1.63;;
51848;SDS011;38952;51.090;-1.832;2022-08-11T03:51:34;2.13;;;1.30;;
51848;SDS011;38952;51.090;-1.832;2022-08-11T03:59:58;1.33;;;0.88;;
51848;SDS011;38952;51.090;-1.832;2022-08-11T04:05:16;1.50;;;1.20;;
51848;SDS011;38952;51.090;-1.832;2022-08-11T04:18:45;1.83;;;0.98;;
51848;SDS011;38952;51.090;-1.832;2022-08-11T04:35:33;1.67;;;1.20;;
51848;SDS011;38952;51.090;-1.832;2022-08-11T04:47:33;1.33;;;1.13;;
51848;SDS011;38952;51.090;-1.832;2022-08-11T04:50:36;2.47;;;1.52;;
51848;SDS011;38952;51.090;-1.832;2022-08-11T04:56:56;2.25;;;1.65;;
51848;SDS011;38952;51.090;-1.832;2022-08-11T05:08:48;2.15;;;1.17;;
51848;SDS011;38952;51.090;-1.832;2022-08-11T05:14:27;2.03;;;1.40;;
51848;SDS011;38952;51.090;-1.832;2022-08-11T05:17:15;1.50;;;1.20;;
51848;SDS011;38952;51.090;-1.832;2022-08-11T05:20:10;2.70;;;1.33;;
51848;SDS011;38952;51.090;-1.832;2022-08-11T05:22:56;3.60;;;1.05;;
51848;SDS011;38952;51.090;-1.832;2022-08-11T05:25:46;1.88;;;1.15;;
51848;SDS011;38952;51.090;-1.832;2022-08-11T05:28:37;4.38;;;1.38;;
51848;SDS011;38952;51.090;-1.832;2022-08-11T05:31:30;2.15;;;1.30;;
51848;SDS011;38952;51.090;-1.832;2022-08-11T05:37:09;4.32;;;1.98;;
51848;SDS011;38952;51.090;-1.832;2022-08-11T05:39:43;5.38;;;1.55;;
51848;SDS011;38952;51.090;-1.832;2022-08-11T05:42:31;1.15;;;1.05;;
51848;SDS011;38952;51.090;-1.832;2022-08-11T05:45:17;1.70;;;1.50;;
51848;SDS011;38952;51.090;-1.832;2022-08-11T05:48:03;1.63;;;1.35;;
51848;SDS011;38952;51.090;-1.832;2022-08-11T05:50:56;1.70;;;1.27;;
51848;SDS011;38952;51.090;-1.832;2022-08-11T05:53:52;1.40;;;0.98;;
51848;SDS011;38952;51.090;-1.832;2022-08-11T05:56:55;1.77;;;1.20;;
51848;SDS011;38952;51.090;-1.832;2022-08-11T05:59:24;2.33;;;1.30;;
51848;SDS011;38952;51.090;-1.832;2022-08-11T06:01:52;2.92;;;1.35;;
51848;SDS011;38952;51.090;-1.832;2022-08-11T06:04:24;1.77;;;1.10;;
51848;SDS011;38952;51.090;-1.832;2022-08-11T06:09:54;2.05;;;1.42;;
51848;SDS011;38952;51.090;-1.832;2022-08-11T06:12:27;1.45;;;1.35;;
51848;SDS011;38952;51.090;-1.832;2022-08-11T06:15:00;2.00;;;1.63;;
51848;SDS011;38952;51.090;-1.832;2022-08-11T06:17:28;1.95;;;1.50;;
51848;SDS011;38952;51.090;-1.832;2022-08-11T06:20:07;2.08;;;1.48;;
51848;SDS011;38952;51.090;-1.832;2022-08-11T06:22:37;1.52;;;1.35;;
51848;SDS011;38952;51.090;-1.832;2022-08-11T06:25:06;4.03;;;1.85;;
51848;SDS011;38952;51.090;-1.832;2022-08-11T06:27:34;3.17;;;1.90;;
51848;SDS011;38952;51.090;-1.832;2022-08-11T06:30:03;2.08;;;1.60;;
51848;SDS011;38952;51.090;-1.832;2022-08-11T06:32:50;2.67;;;1.20;;
51848;SDS011;38952;51.090;-1.832;2022-08-11T06:35:34;5.15;;;1.50;;
51848;SDS011;38952;51.090;-1.832;2022-08-11T06:38:51;3.83;;;1.88;;
51848;SDS011;38952;51.090;-1.832;2022-08-11T06:44:31;1.92;;;1.38;;
51848;SDS011;38952;51.090;-1.832;2022-08-11T06:47:04;1.92;;;1.40;;
51848;SDS011;38952;51.090;-1.832;2022-08-11T06:49:38;4.93;;;1.45;;
51848;SDS011;38952;51.090;-1.832;2022-08-11T06:52:31;3.38;;;2.00;;
51848;SDS011;38952;51.090;-1.832;2022-08-11T06:55:05;3.83;;;2.00;;
51848;SDS011;38952;51.090;-1.832;2022-08-11T06:57:36;1.67;;;1.33;;
51848;SDS011;38952;51.090;-1.832;2022-08-11T07:00:22;3.33;;;1.70;;
51848;SDS011;38952;51.090;-1.832;2022-08-11T07:03:07;3.17;;;1.80;;
51848;SDS011;38952;51.090;-1.832;2022-08-11T07:14:07;3.80;;;1.50;;
51848;SDS011;38952;51.090;-1.832;2022-08-11T07:16:53;2.67;;;1.73;;
51848;SDS011;38952;51.090;-1.832;2022-08-11T07:19:26;1.83;;;1.52;;
51848;SDS011;38952;51.090;-1.832;2022-08-11T07:22:12;1.52;;;1.30;;
51848;SDS011;38952;51.090;-1.832;2022-08-11T07:25:11;5.47;;;1.70;;
51848;SDS011;38952;51.090;-1.832;2022-08-11T07:28:06;2.65;;;1.40;;
51848;SDS011;38952;51.090;-1.832;2022-08-11T07:30:57;2.53;;;1.80;;
51848;SDS011;38952;51.090;-1.832;2022-08-11T07:33:31;2.88;;;1.30;;
51848;SDS011;38952;51.090;-1.832;2022-08-11T07:36:04;2.85;;;1.70;;
51848;SDS011;38952;51.090;-1.832;2022-08-11T07:38:41;2.50;;;1.55;;
51848;SDS011;38952;51.090;-1.832;2022-08-11T07:41:10;4.10;;;2.23;;
51848;SDS011;38952;51.090;-1.832;2022-08-11T07:43:38;3.00;;;1.67;;
51848;SDS011;38952;51.090;-1.832;2022-08-11T07:46:05;2.38;;;1.30;;
51848;SDS011;38952;51.090;-1.832;2022-08-11T07:48:51;3.80;;;1.50;;
51848;SDS011;38952;51.090;-1.832;2022-08-11T07:51:36;1.85;;;1.30;;
51848;SDS011;38952;51.090;-1.832;2022-08-11T07:54:21;3.65;;;1.52;;
51848;SDS011;38952;51.090;-1.832;2022-08-11T07:56:48;1.25;;;1.05;;
51848;SDS011;38952;51.090;-1.832;2022-08-11T07:59:15;0.88;;;0.80;;
51848;SDS011;38952;51.090;-1.832;2022-08-11T08:02:00;1.23;;;1.13;;
51848;SDS011;38952;51.090;-1.832;2022-08-11T08:04:45;1.00;;;0.75;;
51848;SDS011;38952;51.090;-1.832;2022-08-11T08:07:30;1.42;;;0.80;;
51848;SDS011;38952;51.090;-1.832;2022-08-11T08:13:00;1.85;;;1.17;;
51848;SDS011;38952;51.090;-1.832;2022-08-11T08:15:44;0.88;;;0.70;;
51848;SDS011;38952;51.090;-1.832;2022-08-11T08:18:28;3.28;;;1.20;;
51848;SDS011;38952;51.090;-1.832;2022-08-11T08:20:58;2.58;;;1.23;;
51848;SDS011;38952;51.090;-1.832;2022-08-11T08:23:36;5.10;;;1.30;;
51848;SDS011;38952;51.090;-1.832;2022-08-11T08:26:07;3.03;;;0.90;;
51848;SDS011;38952;51.090;-1.832;2022-08-11T08:28:55;1.48;;;0.77;;
51848;SDS011;38952;51.090;-1.832;2022-08-11T08:31:43;1.33;;;0.65;;
51848;SDS011;38952;51.090;-1.832;2022-08-11T08:34:10;1.55;;;0.70;;
51848;SDS011;38952;51.090;-1.832;2022-08-11T08:36:38;3.00;;;1.00;;
51848;SDS011;38952;51.090;-1.832;2022-08-11T08:39:07;1.05;;;0.90;;
51848;SDS011;38952;51.090;-1.832;2022-08-11T08:41:32;1.65;;;1.20;;
51848;SDS011;38952;51.090;-1.832;2022-08-11T08:44:03;2.10;;;0.90;;
51848;SDS011;38952;51.090;-1.832;2022-08-11T08:46:36;3.22;;;0.90;;
51848;SDS011;38952;51.090;-1.832;2022-08-11T08:49:07;0.98;;;0.70;;
51848;SDS011;38952;51.090;-1.832;2022-08-11T08:51:38;1.10;;;0.82;;
51848;SDS011;38952;51.090;-1.832;2022-08-11T08:54:11;2.50;;;1.08;;
51848;SDS011;38952;51.090;-1.832;2022-08-11T08:56:41;5.93;;;0.90;;
51848;SDS011;38952;51.090;-1.832;2022-08-11T08:59:10;3.13;;;1.10;;
51848;SDS011;38952;51.090;-1.832;2022-08-11T09:04:28;1.60;;;0.95;;
51848;SDS011;38952;51.090;-1.832;2022-08-11T09:06:55;1.45;;;0.80;;
51848;SDS011;38952;51.090;-1.832;2022-08-11T09:09:23;0.80;;;0.60;;
51848;SDS011;38952;51.090;-1.832;2022-08-11T09:11:51;1.33;;;0.65;;
51848;SDS011;38952;51.090;-1.832;2022-08-11T09:14:31;1.38;;;0.70;;
51848;SDS011;38952;51.090;-1.832;2022-08-11T09:17:18;0.90;;;0.70;;
51848;SDS011;38952;51.090;-1.832;2022-08-11T09:19:45;4.35;;;0.90;;
51848;SDS011;38952;51.090;-1.832;2022-08-11T09:22:12;1.95;;;0.70;;
51848;SDS011;38952;51.090;-1.832;2022-08-11T09:25:02;2.70;;;0.90;;
51848;SDS011;38952;51.090;-1.832;2022-08-11T09:27:48;2.80;;;0.70;;
51848;SDS011;38952;51.090;-1.832;2022-08-11T09:30:17;1.23;;;1.02;;
51848;SDS011;38952;51.090;-1.832;2022-08-11T09:32:44;1.20;;;0.82;;
51848;SDS011;38952;51.090;-1.832;2022-08-11T09:35:11;2.97;;;1.02;;
51848;SDS011;38952;51.090;-1.832;2022-08-11T09:37:36;1.17;;;0.90;;
51848;SDS011;38952;51.090;-1.832;2022-08-11T09:40:22;1.00;;;0.75;;
51848;SDS011;38952;51.090;-1.832;2022-08-11T09:42:55;0.80;;;0.70;;
51848;SDS011;38952;51.090;-1.832;2022-08-11T09:45:47;0.88;;;0.75;;
51848;SDS011;38952;51.090;-1.832;2022-08-11T09:48:16;1.40;;;1.02;;
51848;SDS011;38952;51.090;-1.832;2022-08-11T09:50:44;1.42;;;0.80;;
51848;SDS011;38952;51.090;-1.832;2022-08-11T09:53:13;2.33;;;0.98;;
51848;SDS011;38952;51.090;-1.832;2022-08-11T09:55:40;2.75;;;0.77;;
51848;SDS011;38952;51.090;-1.832;2022-08-11T09:58:05;2.05;;;1.15;;
51848;SDS011;38952;51.090;-1.832;2022-08-11T10:00:37;3.90;;;1.85;;
51848;SDS011;38952;51.090;-1.832;2022-08-11T10:03:23;1.27;;;0.90;;
51848;SDS011;38952;51.090;-1.832;2022-08-11T10:05:59;1.80;;;1.00;;
51848;SDS011;38952;51.090;-1.832;2022-08-11T10:08:46;1.05;;;0.90;;
51848;SDS011;38952;51.090;-1.832;2022-08-11T10:11:15;1.73;;;0.90;;
51848;SDS011;38952;51.090;-1.832;2022-08-11T10:13:45;5.10;;;1.02;;
51848;SDS011;38952;51.090;-1.832;2022-08-11T10:16:34;1.35;;;1.00;;
51848;SDS011;38952;51.090;-1.832;2022-08-11T10:19:03;1.20;;;0.73;;
51848;SDS011;38952;51.090;-1.832;2022-08-11T10:24:02;0.63;;;0.60;;
51848;SDS011;38952;51.090;-1.832;2022-08-11T10:26:48;3.38;;;1.20;;
51848;SDS011;38952;51.090;-1.832;2022-08-11T10:29:22;1.45;;;0.82;;
51848;SDS011;38952;51.090;-1.832;2022-08-11T10:32:08;3.42;;;1.23;;
51848;SDS011;38952;51.090;-1.832;2022-08-11T10:34:53;1.08;;;0.82;;
51848;SDS011;38952;51.090;-1.832;2022-08-11T10:37:21;0.63;;;0.63;;
51848;SDS011;38952;51.090;-1.832;2022-08-11T10:39:49;0.70;;;0.70;;
51848;SDS011;38952;51.090;-1.832;2022-08-11T10:42:16;1.67;;;0.88;;
51848;SDS011;38952;51.090;-1.832;2022-08-11T10:45:02;5.53;;;1.00;;
51848;SDS011;38952;51.090;-1.832;2022-08-11T10:47:50;1.73;;;1.10;;
51848;SDS011;38952;51.090;-1.832;2022-08-11T10:50:18;0.80;;;0.75;;
51848;SDS011;38952;51.090;-1.832;2022-08-11T10:53:03;2.05;;;0.90;;
51848;SDS011;38952;51.090;-1.832;2022-08-11T10:55:47;1.15;;;0.82;;
51848;SDS011;38952;51.090;-1.832;2022-08-11T10:58:32;0.93;;;0.70;;
51848;SDS011;38952;51.090;-1.832;2022-08-11T11:01:11;0.80;;;0.80;;
51848;SDS011;38952;51.090;-1.832;2022-08-11T11:03:38;1.08;;;0.93;;
51848;SDS011;38952;51.090;-1.832;2022-08-11T11:06:14;1.23;;;0.80;;
51848;SDS011;38952;51.090;-1.832;2022-08-11T11:08:52;5.43;;;1.25;;
51848;SDS011;38952;51.090;-1.832;2022-08-11T11:11:24;2.45;;;1.23;;
51848;SDS011;38952;51.090;-1.832;2022-08-11T11:14:09;1.23;;;0.82;;
51848;SDS011;38952;51.090;-1.832;2022-08-11T11:16:59;1.85;;;1.17;;
51848;SDS011;38952;51.090;-1.832;2022-08-11T11:19:38;1.05;;;0.90;;
51848;SDS011;38952;51.090;-1.832;2022-08-11T11:22:04;1.48;;;0.93;;
51848;SDS011;38952;51.090;-1.832;2022-08-11T11:27:56;1.00;;;0.80;;
51848;SDS011;38952;51.090;-1.832;2022-08-11T11:31:05;5.20;;;1.00;;
51848;SDS011;38952;51.090;-1.832;2022-08-11T11:36:27;0.60;;;0.60;;
51848;SDS011;38952;51.090;-1.832;2022-08-11T11:39:05;1.52;;;0.95;;
51848;SDS011;38952;51.090;-1.832;2022-08-11T11:41:32;0.77;;;0.77;;
51848;SDS011;38952;51.090;-1.832;2022-08-11T11:44:02;0.70;;;0.60;;
51848;SDS011;38952;51.090;-1.832;2022-08-11T11:46:28;0.85;;;0.73;;
51848;SDS011;38952;51.090;-1.832;2022-08-11T11:48:55;0.80;;;0.70;;
51848;SDS011;38952;51.090;-1.832;2022-08-11T11:51:22;1.42;;;0.80;;
51848;SDS011;38952;51.090;-1.832;2022-08-11T11:53:50;0.95;;;0.75;;
51848;SDS011;38952;51.090;-1.832;2022-08-11T11:56:16;3.88;;;1.00;;
51848;SDS011;38952;51.090;-1.832;2022-08-11T11:58:42;1.10;;;0.90;;
51848;SDS011;38952;51.090;-1.832;2022-08-11T12:01:28;1.67;;;1.00;;
51848;SDS011;38952;51.090;-1.832;2022-08-11T12:03:55;1.02;;;0.57;;
51848;SDS011;38952;51.090;-1.832;2022-08-11T12:06:22;0.82;;;0.80;;
51848;SDS011;38952;51.090;-1.832;2022-08-11T12:08:54;0.60;;;0.60;;
51848;SDS011;38952;51.090;-1.832;2022-08-11T12:11:29;1.10;;;0.80;;
51848;SDS011;38952;51.090;-1.832;2022-08-11T12:14:15;1.33;;;1.00;;
51848;SDS011;38952;51.090;-1.832;2022-08-11T12:16:43;0.70;;;0.60;;
51848;SDS011;38952;51.090;-1.832;2022-08-11T12:19:22;1.63;;;0.80;;
51848;SDS011;38952;51.090;-1.832;2022-08-11T12:21:48;1.00;;;0.77;;
51848;SDS011;38952;51.090;-1.832;2022-08-11T12:24:38;1.25;;;0.75;;
51848;SDS011;38952;51.090;-1.832;2022-08-11T12:27:25;1.08;;;0.90;;
51848;SDS011;38952;51.090;-1.832;2022-08-11T12:29:55;0.75;;;0.70;;
51848;SDS011;38952;51.090;-1.832;2022-08-11T12:32:24;1.60;;;1.02;;
51848;SDS011;38952;51.090;-1.832;2022-08-11T12:34:52;0.90;;;0.80;;
51848;SDS011;38952;51.090;-1.832;2022-08-11T12:37:21;1.05;;;0.77;;
51848;SDS011;38952;51.090;-1.832;2022-08-11T12:39:55;2.08;;;0.80;;
51848;SDS011;38952;51.090;-1.832;2022-08-11T12:42:42;0.82;;;0.82;;
51848;SDS011;38952;51.090;-1.832;2022-08-11T12:45:28;0.80;;;0.65;;
51848;SDS011;38952;51.090;-1.832;2022-08-11T12:48:01;1.20;;;0.90;;
51848;SDS011;38952;51.090;-1.832;2022-08-11T12:50:50;1.73;;;0.90;;
51848;SDS011;38952;51.090;-1.832;2022-08-11T13:00:16;1.05;;;0.90;;
51848;SDS011;38952;51.090;-1.832;2022-08-11T13:03:01;2.15;;;1.00;;
51848;SDS011;38952;51.090;-1.832;2022-08-11T13:05:50;1.58;;;1.00;;
51848;SDS011;38952;51.090;-1.832;2022-08-11T13:08:18;1.05;;;0.93;;
51848;SDS011;38952;51.090;-1.832;2022-08-11T13:10:46;0.70;;;0.70;;
51848;SDS011;38952;51.090;-1.832;2022-08-11T13:13:33;0.93;;;0.80;;
51848;SDS011;38952;51.090;-1.832;2022-08-11T13:16:01;1.23;;;0.90;;
51848;SDS011;38952;51.090;-1.832;2022-08-11T13:18:27;1.20;;;1.08;;
51848;SDS011;38952;51.090;-1.832;2022-08-11T13:20:53;1.00;;;0.90;;
51848;SDS011;38952;51.090;-1.832;2022-08-11T13:23:21;1.08;;;0.98;;
51848;SDS011;38952;51.090;-1.832;2022-08-11T13:25:50;2.28;;;1.30;;
51848;SDS011;38952;51.090;-1.832;2022-08-11T13:28:18;4.18;;;0.80;;
51848;SDS011;38952;51.090;-1.832;2022-08-11T13:30:45;1.13;;;0.95;;
51848;SDS011;38952;51.090;-1.832;2022-08-11T13:33:31;1.00;;;0.90;;
51848;SDS011;38952;51.090;-1.832;2022-08-11T13:35:58;1.48;;;0.90;;
51848;SDS011;38952;51.090;-1.832;2022-08-11T13:38:24;1.13;;;0.80;;
51848;SDS011;38952;51.090;-1.832;2022-08-11T13:40:50;0.80;;;0.80;;
51848;SDS011;38952;51.090;-1.832;2022-08-11T13:43:19;1.77;;;0.80;;
51848;SDS011;38952;51.090;-1.832;2022-08-11T13:45:46;0.70;;;0.70;;
51848;SDS011;38952;51.090;-1.832;2022-08-11T13:48:12;0.98;;;0.80;;
51848;SDS011;38952;51.090;-1.832;2022-08-11T13:50:40;1.23;;;0.80;;
51848;SDS011;38952;51.090;-1.832;2022-08-11T13:53:25;0.85;;;0.85;;
51848;SDS011;38952;51.090;-1.832;2022-08-11T13:55:53;1.05;;;0.73;;
51848;SDS011;38952;51.090;-1.832;2022-08-11T13:58:20;1.65;;;0.90;;
51848;SDS011;38952;51.090;-1.832;2022-08-11T14:00:48;3.33;;;1.10;;
51848;SDS011;38952;51.090;-1.832;2022-08-11T14:03:16;3.17;;;0.98;;
51848;SDS011;38952;51.090;-1.832;2022-08-11T14:05:48;1.33;;;0.95;;
51848;SDS011;38952;51.090;-1.832;2022-08-11T14:08:17;1.27;;;1.02;;
51848;SDS011;38952;51.090;-1.832;2022-08-11T14:10:48;1.10;;;1.00;;
51848;SDS011;38952;51.090;-1.832;2022-08-11T14:13:36;1.60;;;1.05;;
51848;SDS011;38952;51.090;-1.832;2022-08-11T14:16:06;0.80;;;0.80;;
51848;SDS011;38952;51.090;-1.832;2022-08-11T14:18:35;2.55;;;1.00;;
51848;SDS011;38952;51.090;-1.832;2022-08-11T14:21:07;0.82;;;0.82;;
51848;SDS011;38952;51.090;-1.832;2022-08-11T14:23:57;1.08;;;0.95;;
51848;SDS011;38952;51.090;-1.832;2022-08-11T14:26:24;0.85;;;0.85;;
51848;SDS011;38952;51.090;-1.832;2022-08-11T14:31:25;1.27;;;1.10;;
51848;SDS011;38952;51.090;-1.832;2022-08-11T14:33:55;1.15;;;0.90;;
51848;SDS011;38952;51.090;-1.832;2022-08-11T14:36:24;1.00;;;1.00;;
51848;SDS011;38952;51.090;-1.832;2022-08-11T14:38:52;1.30;;;1.20;;
51848;SDS011;38952;51.090;-1.832;2022-08-11T14:41:19;2.25;;;1.38;;
51848;SDS011;38952;51.090;-1.832;2022-08-11T14:44:06;2.25;;;1.30;;
51848;SDS011;38952;51.090;-1.832;2022-08-11T14:46:52;1.05;;;1.02;;
51848;SDS011;38952;51.090;-1.832;2022-08-11T14:49:32;1.33;;;1.02;;
51848;SDS011;38952;51.090;-1.832;2022-08-11T14:52:05;0.85;;;0.85;;
51848;SDS011;38952;51.090;-1.832;2022-08-11T14:54:33;1.08;;;0.98;;
51848;SDS011;38952;51.090;-1.832;2022-08-11T14:57:19;1.08;;;0.90;;
51848;SDS011;38952;51.090;-1.832;2022-08-11T14:59:47;1.10;;;1.00;;
51848;SDS011;38952;51.090;-1.832;2022-08-11T15:02:14;1.00;;;0.90;;
51848;SDS011;38952;51.090;-1.832;2022-08-11T15:04:59;0.75;;;0.75;;
51848;SDS011;38952;51.090;-1.832;2022-08-11T15:07:27;0.80;;;0.80;;
51848;SDS011;38952;51.090;-1.832;2022-08-11T15:10:00;3.20;;;1.10;;
51848;SDS011;38952;51.090;-1.832;2022-08-11T15:12:27;1.13;;;1.00;;
51848;SDS011;38952;51.090;-1.832;2022-08-11T15:14:54;1.25;;;1.00;;
51848;SDS011;38952;51.090;-1.832;2022-08-11T15:17:38;1.20;;;1.20;;
51848;SDS011;38952;51.090;-1.832;2022-08-11T15:20:06;2.15;;;1.10;;
51848;SDS011;38952;51.090;-1.832;2022-08-11T15:22:53;1.65;;;1.08;;
51848;SDS011;38952;51.090;-1.832;2022-08-11T15:25:38;3.85;;;0.93;;
51848;SDS011;38952;51.090;-1.832;2022-08-11T15:28:06;1.27;;;1.00;;
51848;SDS011;38952;51.090;-1.832;2022-08-11T15:34:13;1.60;;;1.08;;
51848;SDS011;38952;51.090;-1.832;2022-08-11T15:37:02;0.90;;;0.88;;
51848;SDS011;38952;51.090;-1.832;2022-08-11T15:39:51;1.63;;;1.10;;
51848;SDS011;38952;51.090;-1.832;2022-08-11T15:42:43;1.35;;;0.98;;
51848;SDS011;38952;51.090;-1.832;2022-08-11T15:45:32;0.73;;;0.73;;
51848;SDS011;38952;51.090;-1.832;2022-08-11T15:48:14;0.80;;;0.80;;
51848;SDS011;38952;51.090;-1.832;2022-08-11T15:50:45;0.88;;;0.80;;
51848;SDS011;38952;51.090;-1.832;2022-08-11T15:55:55;2.08;;;1.00;;
51848;SDS011;38952;51.090;-1.832;2022-08-11T15:58:23;1.00;;;0.90;;
51848;SDS011;38952;51.090;-1.832;2022-08-11T16:01:13;1.27;;;0.90;;
51848;SDS011;38952;51.090;-1.832;2022-08-11T16:04:02;1.17;;;1.00;;
51848;SDS011;38952;51.090;-1.832;2022-08-11T16:06:47;1.60;;;0.80;;
51848;SDS011;38952;51.090;-1.832;2022-08-11T16:09:54;1.20;;;0.80;;
51848;SDS011;38952;51.090;-1.832;2022-08-11T16:12:24;1.35;;;1.00;;
51848;SDS011;38952;51.090;-1.832;2022-08-11T16:14:57;1.88;;;0.90;;
51848;SDS011;38952;51.090;-1.832;2022-08-11T16:17:45;1.63;;;0.90;;
51848;SDS011;38952;51.090;-1.832;2022-08-11T16:20:15;3.80;;;0.90;;
51848;SDS011;38952;51.090;-1.832;2022-08-11T16:22:43;0.80;;;0.80;;
51848;SDS011;38952;51.090;-1.832;2022-08-11T16:25:12;1.10;;;0.93;;
51848;SDS011;38952;51.090;-1.832;2022-08-11T16:27:42;0.60;;;0.50;;
51848;SDS011;38952;51.090;-1.832;2022-08-11T16:30:11;4.60;;;0.80;;
51848;SDS011;38952;51.090;-1.832;2022-08-11T16:32:39;0.98;;;0.73;;
51848;SDS011;38952;51.090;-1.832;2022-08-11T16:35:17;0.93;;;0.70;;
51848;SDS011;38952;51.090;-1.832;2022-08-11T16:38:03;0.80;;;0.80;;
51848;SDS011;38952;51.090;-1.832;2022-08-11T16:40:50;0.85;;;0.80;;
51848;SDS011;38952;51.090;-1.832;2022-08-11T16:43:17;0.88;;;0.80;;
51848;SDS011;38952;51.090;-1.832;2022-08-11T16:46:03;1.52;;;1.00;;
51848;SDS011;38952;51.090;-1.832;2022-08-11T16:48:49;0.98;;;0.80;;
51848;SDS011;38952;51.090;-1.832;2022-08-11T16:51:19;0.60;;;0.60;;
51848;SDS011;38952;51.090;-1.832;2022-08-11T16:53:46;1.08;;;0.70;;
51848;SDS011;38952;51.090;-1.832;2022-08-11T16:56:20;0.60;;;0.60;;
51848;SDS011;38952;51.090;-1.832;2022-08-11T16:58:51;0.98;;;0.80;;
51848;SDS011;38952;51.090;-1.832;2022-08-11T17:01:37;0.65;;;0.65;;
51848;SDS011;38952;51.090;-1.832;2022-08-11T17:04:08;0.75;;;0.65;;
51848;SDS011;38952;51.090;-1.832;2022-08-11T17:07:02;1.00;;;0.90;;
51848;SDS011;38952;51.090;-1.832;2022-08-11T17:09:47;2.63;;;0.95;;
51848;SDS011;38952;51.090;-1.832;2022-08-11T17:12:33;2.00;;;0.90;;
51848;SDS011;38952;51.090;-1.832;2022-08-11T17:15:20;0.93;;;0.63;;
51848;SDS011;38952;51.090;-1.832;2022-08-11T17:18:06;1.38;;;0.73;;
51848;SDS011;38952;51.090;-1.832;2022-08-11T17:20:37;1.00;;;0.90;;
51848;SDS011;38952;51.090;-1.832;2022-08-11T17:23:04;0.77;;;0.50;;
51848;SDS011;38952;51.090;-1.832;2022-08-11T17:25:50;4.63;;;1.10;;
51848;SDS011;38952;51.090;-1.832;2022-08-11T17:28:17;1.23;;;1.00;;
51848;SDS011;38952;51.090;-1.832;2022-08-11T17:30:45;1.20;;;0.95;;
51848;SDS011;38952;51.090;-1.832;2022-08-11T17:33:30;1.60;;;0.82;;
51848;SDS011;38952;51.090;-1.832;2022-08-11T17:36:16;0.95;;;0.70;;
51848;SDS011;38952;51.090;-1.832;2022-08-11T17:38:44;2.25;;;0.80;;
51848;SDS011;38952;51.090;-1.832;2022-08-11T17:41:11;0.50;;;0.50;;
51848;SDS011;38952;51.090;-1.832;2022-08-11T17:43:57;1.08;;;0.90;;
51848;SDS011;38952;51.090;-1.832;2022-08-11T17:46:42;0.80;;;0.80;;
51848;SDS011;38952;51.090;-1.832;2022-08-11T17:49:28;1.15;;;0.70;;
51848;SDS011;38952;51.090;-1.832;2022-08-11T17:52:01;0.80;;;0.63;;
51848;SDS011;38952;51.090;-1.832;2022-08-11T17:54:47;1.52;;;0.93;;
51848;SDS011;38952;51.090;-1.832;2022-08-11T17:57:34;1.33;;;0.70;;
51848;SDS011;38952;51.090;-1.832;2022-08-11T18:00:19;1.05;;;0.75;;
51848;SDS011;38952;51.090;-1.832;2022-08-11T18:02:46;1.30;;;0.73;;
51848;SDS011;38952;51.090;-1.832;2022-08-11T18:05:32;1.35;;;0.82;;
51848;SDS011;38952;51.090;-1.832;2022-08-11T18:08:00;1.05;;;0.90;;
51848;SDS011;38952;51.090;-1.832;2022-08-11T18:10:47;1.00;;;0.73;;
51848;SDS011;38952;51.090;-1.832;2022-08-11T18:13:34;4.32;;;1.58;;
51848;SDS011;38952;51.090;-1.832;2022-08-11T18:16:20;1.35;;;0.80;;
51848;SDS011;38952;51.090;-1.832;2022-08-11T18:19:05;2.33;;;0.70;;
51848;SDS011;38952;51.090;-1.832;2022-08-11T18:21:50;2.08;;;0.82;;
51848;SDS011;38952;51.090;-1.832;2022-08-11T18:24:39;1.58;;;0.85;;
51848;SDS011;38952;51.090;-1.832;2022-08-11T18:27:28;3.38;;;0.93;;
51848;SDS011;38952;51.090;-1.832;2022-08-11T18:30:15;11.00;;;0.93;;
51848;SDS011;38952;51.090;-1.832;2022-08-11T18:33:00;0.82;;;0.75;;
51848;SDS011;38952;51.090;-1.832;2022-08-11T18:35:50;0.73;;;0.60;;
51848;SDS011;38952;51.090;-1.832;2022-08-11T18:38:40;0.60;;;0.60;;
51848;SDS011;38952;51.090;-1.832;2022-08-11T18:41:28;0.85;;;0.77;;
51848;SDS011;38952;51.090;-1.832;2022-08-11T18:44:14;2.50;;;1.30;;
51848;SDS011;38952;51.090;-1.832;2022-08-11T18:47:01;2.80;;;1.60;;
51848;SDS011;38952;51.090;-1.832;2022-08-11T18:49:50;2.95;;;1.75;;
51848;SDS011;38952;51.090;-1.832;2022-08-11T18:52:37;2.30;;;1.48;;
51848;SDS011;38952;51.090;-1.832;2022-08-11T18:55:25;2.10;;;1.48;;
51848;SDS011;38952;51.090;-1.832;2022-08-11T18:58:12;1.27;;;1.17;;
51848;SDS011;38952;51.090;-1.832;2022-08-11T19:00:59;1.00;;;0.90;;
51848;SDS011;38952;51.090;-1.832;2022-08-11T19:03:45;1.15;;;1.00;;
51848;SDS011;38952;51.090;-1.832;2022-08-11T19:06:32;4.22;;;1.70;;
51848;SDS011;38952;51.090;-1.832;2022-08-11T19:09:17;7.03;;;1.30;;
51848;SDS011;38952;51.090;-1.832;2022-08-11T19:12:02;4.53;;;1.50;;
51848;SDS011;38952;51.090;-1.832;2022-08-11T19:14:50;2.90;;;2.10;;
51848;SDS011;38952;51.090;-1.832;2022-08-11T19:17:39;3.85;;;2.33;;